This is the latest recevied weather packets stored in our database for station/object CE4JVU-10. If no packets are shown the sender has not sent any weather packets the latest 10 day(s).
| Time | Temp. | Humidity | Pressure | Rain* | Wind** | Luminosity | Snow |
|---|---|---|---|---|---|---|---|
| 1787940536 | 18.33° C | 50% | 981 hPa | - | - | - | - |
| 1787939636 | 18.33° C | 50% | 981.2 hPa | - | - | - | - |
| 1787938736 | 18.33° C | 48% | 981.3 hPa | - | - | - | - |
| 1787937836 | 17.78° C | 53% | 981.4 hPa | - | - | - | - |
| 1787936936 | 17.22° C | 57% | 981.7 hPa | - | - | - | - |
| 1787936036 | 16.11° C | 56% | 981.9 hPa | - | - | - | - |
| 1787935135 | 16.11° C | 56% | 981.9 hPa | - | - | - | - |
| 1787934235 | 15.56° C | 60% | 982 hPa | - | - | - | - |
| 1787933335 | 16.11° C | 60% | 982.3 hPa | - | - | - | - |
| 1787932435 | 15.56° C | 56% | 982.2 hPa | - | - | - | - |
| 1787931535 | 15.56° C | 60% | 982.3 hPa | - | - | - | - |
| 1787930635 | 15.56° C | 58% | 982.3 hPa | - | - | - | - |
| 1787929735 | 15.56° C | 62% | 982 hPa | - | - | - | - |
| 1787928835 | 16.11° C | 61% | 981.9 hPa | - | - | - | - |
| 1787927935 | 16.11° C | 64% | 982 hPa | - | - | - | - |
| 1787927034 | 16.11° C | 64% | 982.1 hPa | - | - | - | - |
| 1787926134 | 16.67° C | 64% | 982 hPa | - | - | - | - |
| 1787925234 | 16.11° C | 65% | 981.9 hPa | - | - | - | - |
| 1787924334 | 16.67° C | 68% | 982.1 hPa | - | - | - | - |
| 1787923434 | 16.67° C | 69% | 981.7 hPa | - | - | - | - |
| 1787922533 | 16.11° C | 71% | 982 hPa | - | - | - | - |
| 1787860304 | 18.33° C | 56% | 976.6 hPa | - | - | - | - |
| 1787859404 | 18.89° C | 55% | 976.5 hPa | - | - | - | - |
| 1787858504 | 21.11° C | 59% | 976.5 hPa | - | - | - | - |
| 1787857604 | 21.11° C | 58% | 976.5 hPa | - | - | - | - |
* Rain since midnight (hover to see other rain measurements)
** Current wind speed in m/s (hover to see current wind gust speed)